首页
METAR-TAF:

METAR-TAF

机场 :

諾里奇, 英格兰

纬度: 52-38N, 经度: 001-18E, 海拔: 14米

当前天气观测

该预报发布于35分钟前的17:20 UTC
风速3节,风向南转南东
温度 2°C
湿度 93%
气压 1017 hPa
能见度10公里或以上
1500米以下无云,无积雨云

METAR: EGSH 191720Z 16003KT CAVOK 02/01 Q1017

时间: 17:55 (17:55 UTC)

预报

该预报发布于1小时和0分钟前的16:55 UTC
预报有效从19日的 18点(UTC)到 19日的 24点(UTC)
风速5节,风向多变
能见度10公里或以上
少量云层高于3000英尺
几率 30%
从 19日的 18点(UTC)到 19日的 22点(UTC)
能見度: 6000

TAF: EGSH 191655Z 1918/1924 VRB05KT 9999 FEW030 PROB30 1918/1922 6000

超过4000个机场的气象观测和天气预报(METAR&TAF报告)。

可查询的气象台以黄色和红色小点在地图上表示。

将鼠标移到小点上方,可查看气象台名称。

然后点击查看天气观测和预报。

如需切换地图:点击带黑十字的绿色按钮放大地图;点击带横线的绿色按钮缩小地图;或者点击绿色箭头查看邻近地区的地图。


METAR-TAF: